sensor_id;sensor_type;location;lat;lon;timestamp;temperature;humidity
65824;SHT31;52585;47.566;19.056;2022-11-20T00:01:21;6.81;62.83
65824;SHT31;52585;47.566;19.056;2022-11-20T00:03:50;6.78;62.88
65824;SHT31;52585;47.566;19.056;2022-11-20T00:06:18;6.78;63.10
65824;SHT31;52585;47.566;19.056;2022-11-20T00:08:46;6.79;63.20
65824;SHT31;52585;47.566;19.056;2022-11-20T00:11:13;6.79;63.05
65824;SHT31;52585;47.566;19.056;2022-11-20T00:13:45;6.79;62.88
65824;SHT31;52585;47.566;19.056;2022-11-20T00:16:14;6.79;62.98
65824;SHT31;52585;47.566;19.056;2022-11-20T00:18:43;6.78;62.91
65824;SHT31;52585;47.566;19.056;2022-11-20T00:21:19;6.78;62.88
65824;SHT31;52585;47.566;19.056;2022-11-20T00:23:50;6.76;62.74
65824;SHT31;52585;47.566;19.056;2022-11-20T00:26:18;6.76;63.00
65824;SHT31;52585;47.566;19.056;2022-11-20T00:28:49;6.77;63.07
65824;SHT31;52585;47.566;19.056;2022-11-20T00:31:18;6.78;62.94
65824;SHT31;52585;47.566;19.056;2022-11-20T00:33:44;6.78;62.82
65824;SHT31;52585;47.566;19.056;2022-11-20T00:36:18;6.78;62.75
65824;SHT31;52585;47.566;19.056;2022-11-20T00:38:52;6.77;62.80
65824;SHT31;52585;47.566;19.056;2022-11-20T00:41:20;6.77;62.89
65824;SHT31;52585;47.566;19.056;2022-11-20T00:43:46;6.78;63.02
65824;SHT31;52585;47.566;19.056;2022-11-20T00:46:17;6.78;62.89
65824;SHT31;52585;47.566;19.056;2022-11-20T00:48:44;6.77;62.84
65824;SHT31;52585;47.566;19.056;2022-11-20T00:51:12;6.80;63.27
65824;SHT31;52585;47.566;19.056;2022-11-20T00:53:44;6.88;63.70
65824;SHT31;52585;47.566;19.056;2022-11-20T00:56:11;6.99;65.50
65824;SHT31;52585;47.566;19.056;2022-11-20T00:58:41;7.11;63.65
65824;SHT31;52585;47.566;19.056;2022-11-20T01:03:43;7.10;63.06
65824;SHT31;52585;47.566;19.056;2022-11-20T01:06:19;7.10;63.03
65824;SHT31;52585;47.566;19.056;2022-11-20T01:08:52;7.09;63.12
65824;SHT31;52585;47.566;19.056;2022-11-20T01:11:22;7.09;63.14
65824;SHT31;52585;47.566;19.056;2022-11-20T01:13:55;7.08;63.21
65824;SHT31;52585;47.566;19.056;2022-11-20T01:16:24;7.04;63.17
65824;SHT31;52585;47.566;19.056;2022-11-20T01:18:53;7.03;63.24
65824;SHT31;52585;47.566;19.056;2022-11-20T01:23:51;6.98;63.34
65824;SHT31;52585;47.566;19.056;2022-11-20T01:26:21;6.97;63.41
65824;SHT31;52585;47.566;19.056;2022-11-20T01:28:50;6.95;63.51
65824;SHT31;52585;47.566;19.056;2022-11-20T01:31:23;6.94;63.53
65824;SHT31;52585;47.566;19.056;2022-11-20T01:33:53;6.91;63.55
65824;SHT31;52585;47.566;19.056;2022-11-20T01:36:22;6.90;63.54
65824;SHT31;52585;47.566;19.056;2022-11-20T01:38:52;6.87;63.57
65824;SHT31;52585;47.566;19.056;2022-11-20T01:41:20;6.85;63.62
65824;SHT31;52585;47.566;19.056;2022-11-20T01:44:09;6.82;63.74
65824;SHT31;52585;47.566;19.056;2022-11-20T01:46:40;6.81;63.81
65824;SHT31;52585;47.566;19.056;2022-11-20T01:49:22;6.81;63.94
65824;SHT31;52585;47.566;19.056;2022-11-20T01:52:07;6.80;64.02
65824;SHT31;52585;47.566;19.056;2022-11-20T01:54:43;6.80;64.06
65824;SHT31;52585;47.566;19.056;2022-11-20T01:57:15;6.80;64.08
65824;SHT31;52585;47.566;19.056;2022-11-20T01:59:47;6.80;64.18
65824;SHT31;52585;47.566;19.056;2022-11-20T02:02:21;6.79;64.26
65824;SHT31;52585;47.566;19.056;2022-11-20T02:04:48;6.82;64.46
65824;SHT31;52585;47.566;19.056;2022-11-20T02:07:19;6.83;64.59
65824;SHT31;52585;47.566;19.056;2022-11-20T02:09:46;6.85;64.57
65824;SHT31;52585;47.566;19.056;2022-11-20T02:12:11;6.89;64.53
65824;SHT31;52585;47.566;19.056;2022-11-20T02:14:57;6.89;64.50
65824;SHT31;52585;47.566;19.056;2022-11-20T02:17:23;6.91;64.50
65824;SHT31;52585;47.566;19.056;2022-11-20T02:19:50;6.91;64.42
65824;SHT31;52585;47.566;19.056;2022-11-20T02:22:21;6.92;64.34
65824;SHT31;52585;47.566;19.056;2022-11-20T02:24:58;6.91;64.45
65824;SHT31;52585;47.566;19.056;2022-11-20T02:27:27;6.91;64.49
65824;SHT31;52585;47.566;19.056;2022-11-20T02:29:56;6.90;64.40
65824;SHT31;52585;47.566;19.056;2022-11-20T02:32:28;6.89;64.40
65824;SHT31;52585;47.566;19.056;2022-11-20T02:35:10;6.88;64.38
65824;SHT31;52585;47.566;19.056;2022-11-20T02:37:54;6.87;64.27
65824;SHT31;52585;47.566;19.056;2022-11-20T02:40:24;6.87;64.22
65824;SHT31;52585;47.566;19.056;2022-11-20T02:42:56;6.87;64.28
65824;SHT31;52585;47.566;19.056;2022-11-20T02:45:23;6.85;64.31
65824;SHT31;52585;47.566;19.056;2022-11-20T02:47:50;6.85;64.38
65824;SHT31;52585;47.566;19.056;2022-11-20T02:50:16;6.84;64.36
65824;SHT31;52585;47.566;19.056;2022-11-20T02:52:42;6.83;64.51
65824;SHT31;52585;47.566;19.056;2022-11-20T02:55:08;6.84;64.62
65824;SHT31;52585;47.566;19.056;2022-11-20T02:57:34;6.83;64.69
65824;SHT31;52585;47.566;19.056;2022-11-20T02:59:59;6.82;64.82
65824;SHT31;52585;47.566;19.056;2022-11-20T03:02:27;6.82;65.00
65824;SHT31;52585;47.566;19.056;2022-11-20T03:04:55;6.84;65.29
65824;SHT31;52585;47.566;19.056;2022-11-20T03:07:21;6.86;65.05
65824;SHT31;52585;47.566;19.056;2022-11-20T03:09:46;6.88;64.94
65824;SHT31;52585;47.566;19.056;2022-11-20T03:12:12;6.91;64.96
65824;SHT31;52585;47.566;19.056;2022-11-20T03:14:38;6.92;64.81
65824;SHT31;52585;47.566;19.056;2022-11-20T03:17:04;6.93;64.67
65824;SHT31;52585;47.566;19.056;2022-11-20T03:19:29;6.93;64.58
65824;SHT31;52585;47.566;19.056;2022-11-20T03:21:55;6.93;64.52
65824;SHT31;52585;47.566;19.056;2022-11-20T03:24:21;6.92;64.60
65824;SHT31;52585;47.566;19.056;2022-11-20T03:26:46;6.93;64.72
65824;SHT31;52585;47.566;19.056;2022-11-20T03:29:12;6.92;64.88
65824;SHT31;52585;47.566;19.056;2022-11-20T03:31:38;6.91;64.86
65824;SHT31;52585;47.566;19.056;2022-11-20T03:34:06;6.90;64.79
65824;SHT31;52585;47.566;19.056;2022-11-20T03:36:34;6.90;64.77
65824;SHT31;52585;47.566;19.056;2022-11-20T03:39:02;6.90;64.71
65824;SHT31;52585;47.566;19.056;2022-11-20T03:41:28;6.89;64.60
65824;SHT31;52585;47.566;19.056;2022-11-20T03:43:56;6.87;64.61
65824;SHT31;52585;47.566;19.056;2022-11-20T03:46:25;6.86;64.61
65824;SHT31;52585;47.566;19.056;2022-11-20T03:48:52;6.84;64.61
65824;SHT31;52585;47.566;19.056;2022-11-20T03:51:20;6.83;64.67
65824;SHT31;52585;47.566;19.056;2022-11-20T03:53:47;6.81;64.63
65824;SHT31;52585;47.566;19.056;2022-11-20T03:56:16;6.80;64.70
65824;SHT31;52585;47.566;19.056;2022-11-20T03:58:44;6.81;64.82
65824;SHT31;52585;47.566;19.056;2022-11-20T04:01:14;6.81;64.79
65824;SHT31;52585;47.566;19.056;2022-11-20T04:03:44;6.81;64.97
65824;SHT31;52585;47.566;19.056;2022-11-20T04:06:11;6.82;65.01
65824;SHT31;52585;47.566;19.056;2022-11-20T04:08:44;6.84;64.80
65824;SHT31;52585;47.566;19.056;2022-11-20T04:11:17;6.82;64.74
65824;SHT31;52585;47.566;19.056;2022-11-20T04:13:47;6.82;64.69
65824;SHT31;52585;47.566;19.056;2022-11-20T04:16:18;6.81;64.73
65824;SHT31;52585;47.566;19.056;2022-11-20T04:18:46;6.81;64.84
65824;SHT31;52585;47.566;19.056;2022-11-20T04:21:12;6.81;64.75
65824;SHT31;52585;47.566;19.056;2022-11-20T04:23:38;6.81;64.72
65824;SHT31;52585;47.566;19.056;2022-11-20T04:26:05;6.79;64.63
65824;SHT31;52585;47.566;19.056;2022-11-20T04:28:34;6.77;64.71
65824;SHT31;52585;47.566;19.056;2022-11-20T04:31:01;6.76;64.65
65824;SHT31;52585;47.566;19.056;2022-11-20T04:33:38;6.75;64.66
65824;SHT31;52585;47.566;19.056;2022-11-20T04:36:12;6.73;64.68
65824;SHT31;52585;47.566;19.056;2022-11-20T04:38:41;6.70;64.65
65824;SHT31;52585;47.566;19.056;2022-11-20T04:41:08;6.68;64.67
65824;SHT31;52585;47.566;19.056;2022-11-20T04:43:41;6.66;64.75
65824;SHT31;52585;47.566;19.056;2022-11-20T04:46:10;6.65;64.81
65824;SHT31;52585;47.566;19.056;2022-11-20T04:48:36;6.62;64.78
65824;SHT31;52585;47.566;19.056;2022-11-20T04:51:04;6.59;64.81
65824;SHT31;52585;47.566;19.056;2022-11-20T04:53:30;6.59;64.97
65824;SHT31;52585;47.566;19.056;2022-11-20T04:56:00;6.59;65.02
65824;SHT31;52585;47.566;19.056;2022-11-20T04:58:27;6.59;65.10
65824;SHT31;52585;47.566;19.056;2022-11-20T05:00:53;6.61;65.16
65824;SHT31;52585;47.566;19.056;2022-11-20T05:03:19;6.61;65.19
65824;SHT31;52585;47.566;19.056;2022-11-20T05:05:44;6.63;65.14
65824;SHT31;52585;47.566;19.056;2022-11-20T05:08:10;6.64;65.22
65824;SHT31;52585;47.566;19.056;2022-11-20T05:10:35;6.66;65.30
65824;SHT31;52585;47.566;19.056;2022-11-20T05:13:00;6.67;65.24
65824;SHT31;52585;47.566;19.056;2022-11-20T05:15:26;6.69;65.39
65824;SHT31;52585;47.566;19.056;2022-11-20T05:17:52;6.69;65.45
65824;SHT31;52585;47.566;19.056;2022-11-20T05:20:18;6.70;65.34
65824;SHT31;52585;47.566;19.056;2022-11-20T05:22:45;6.71;65.29
65824;SHT31;52585;47.566;19.056;2022-11-20T05:25:11;6.70;65.09
65824;SHT31;52585;47.566;19.056;2022-11-20T05:27:36;6.69;65.25
65824;SHT31;52585;47.566;19.056;2022-11-20T05:30:03;6.69;65.30
65824;SHT31;52585;47.566;19.056;2022-11-20T05:32:30;6.69;65.32
65824;SHT31;52585;47.566;19.056;2022-11-20T05:34:56;6.68;65.40
65824;SHT31;52585;47.566;19.056;2022-11-20T05:37:21;6.68;65.45
65824;SHT31;52585;47.566;19.056;2022-11-20T05:39:47;6.68;65.53
65824;SHT31;52585;47.566;19.056;2022-11-20T05:42:13;6.67;65.26
65824;SHT31;52585;47.566;19.056;2022-11-20T05:44:57;6.66;65.46
65824;SHT31;52585;47.566;19.056;2022-11-20T05:47:31;6.65;65.51
65824;SHT31;52585;47.566;19.056;2022-11-20T05:49:59;6.66;65.64
65824;SHT31;52585;47.566;19.056;2022-11-20T05:52:27;6.68;65.77
65824;SHT31;52585;47.566;19.056;2022-11-20T05:54:54;6.70;65.76
65824;SHT31;52585;47.566;19.056;2022-11-20T05:57:20;6.71;65.70
65824;SHT31;52585;47.566;19.056;2022-11-20T05:59:46;6.72;65.61
65824;SHT31;52585;47.566;19.056;2022-11-20T06:02:11;6.73;65.60
65824;SHT31;52585;47.566;19.056;2022-11-20T06:04:37;6.74;65.51
65824;SHT31;52585;47.566;19.056;2022-11-20T06:07:04;6.74;65.41
65824;SHT31;52585;47.566;19.056;2022-11-20T06:09:31;6.75;65.24
65824;SHT31;52585;47.566;19.056;2022-11-20T06:11:57;6.73;65.16
65824;SHT31;52585;47.566;19.056;2022-11-20T06:14:23;6.72;65.13
65824;SHT31;52585;47.566;19.056;2022-11-20T06:16:48;6.71;65.13
65824;SHT31;52585;47.566;19.056;2022-11-20T06:19:14;6.70;65.21
65824;SHT31;52585;47.566;19.056;2022-11-20T06:21:40;6.70;65.24
65824;SHT31;52585;47.566;19.056;2022-11-20T06:24:06;6.70;65.11
65824;SHT31;52585;47.566;19.056;2022-11-20T06:26:35;6.69;65.24
65824;SHT31;52585;47.566;19.056;2022-11-20T06:29:00;6.68;65.24
65824;SHT31;52585;47.566;19.056;2022-11-20T06:31:26;6.67;65.39
65824;SHT31;52585;47.566;19.056;2022-11-20T06:33:52;6.66;65.34
65824;SHT31;52585;47.566;19.056;2022-11-20T06:36:18;6.64;65.45
65824;SHT31;52585;47.566;19.056;2022-11-20T06:38:46;6.64;65.49
65824;SHT31;52585;47.566;19.056;2022-11-20T06:41:13;6.66;65.70
65824;SHT31;52585;47.566;19.056;2022-11-20T06:43:44;6.68;65.81
65824;SHT31;52585;47.566;19.056;2022-11-20T06:46:11;6.70;65.85
65824;SHT31;52585;47.566;19.056;2022-11-20T06:48:39;6.72;65.88
65824;SHT31;52585;47.566;19.056;2022-11-20T06:51:05;6.74;65.95
65824;SHT31;52585;47.566;19.056;2022-11-20T06:53:32;6.76;65.88
65824;SHT31;52585;47.566;19.056;2022-11-20T06:55:59;6.77;65.80
65824;SHT31;52585;47.566;19.056;2022-11-20T06:58:28;6.77;65.87
65824;SHT31;52585;47.566;19.056;2022-11-20T07:00:59;6.78;65.76
65824;SHT31;52585;47.566;19.056;2022-11-20T07:03:28;6.78;65.54
65824;SHT31;52585;47.566;19.056;2022-11-20T07:05:54;6.78;65.53
65824;SHT31;52585;47.566;19.056;2022-11-20T07:08:21;6.78;65.55
65824;SHT31;52585;47.566;19.056;2022-11-20T07:10:47;6.78;65.59
65824;SHT31;52585;47.566;19.056;2022-11-20T07:13:13;6.77;65.63
65824;SHT31;52585;47.566;19.056;2022-11-20T07:15:39;6.77;65.69
65824;SHT31;52585;47.566;19.056;2022-11-20T07:18:04;6.77;65.80
65824;SHT31;52585;47.566;19.056;2022-11-20T07:20:30;6.76;65.81
65824;SHT31;52585;47.566;19.056;2022-11-20T07:22:56;6.75;65.76
65824;SHT31;52585;47.566;19.056;2022-11-20T07:25:23;6.73;65.88
65824;SHT31;52585;47.566;19.056;2022-11-20T07:27:50;6.73;66.14
65824;SHT31;52585;47.566;19.056;2022-11-20T07:30:16;6.74;66.54
65824;SHT31;52585;47.566;19.056;2022-11-20T07:32:45;6.77;66.68
65824;SHT31;52585;47.566;19.056;2022-11-20T07:35:12;6.80;66.74
65824;SHT31;52585;47.566;19.056;2022-11-20T07:37:38;6.82;66.90
65824;SHT31;52585;47.566;19.056;2022-11-20T07:40:03;6.86;66.85
65824;SHT31;52585;47.566;19.056;2022-11-20T07:42:30;6.88;66.54
65824;SHT31;52585;47.566;19.056;2022-11-20T07:44:55;6.89;66.62
65824;SHT31;52585;47.566;19.056;2022-11-20T07:47:21;6.90;66.68
65824;SHT31;52585;47.566;19.056;2022-11-20T07:49:46;6.90;66.74
65824;SHT31;52585;47.566;19.056;2022-11-20T07:52:11;6.92;66.60
65824;SHT31;52585;47.566;19.056;2022-11-20T07:54:37;6.93;66.67
65824;SHT31;52585;47.566;19.056;2022-11-20T07:57:02;6.92;66.81
65824;SHT31;52585;47.566;19.056;2022-11-20T07:59:28;6.93;66.74
65824;SHT31;52585;47.566;19.056;2022-11-20T08:01:53;6.94;66.65
65824;SHT31;52585;47.566;19.056;2022-11-20T08:04:20;6.94;66.76
65824;SHT31;52585;47.566;19.056;2022-11-20T08:06:46;6.95;66.80
65824;SHT31;52585;47.566;19.056;2022-11-20T08:09:12;6.98;66.96
65824;SHT31;52585;47.566;19.056;2022-11-20T08:11:37;7.01;67.10
65824;SHT31;52585;47.566;19.056;2022-11-20T08:14:21;7.04;67.12
65824;SHT31;52585;47.566;19.056;2022-11-20T08:16:47;7.06;67.33
65824;SHT31;52585;47.566;19.056;2022-11-20T08:19:15;7.09;67.30
65824;SHT31;52585;47.566;19.056;2022-11-20T08:21:43;7.10;67.30
65824;SHT31;52585;47.566;19.056;2022-11-20T08:24:10;7.11;67.29
65824;SHT31;52585;47.566;19.056;2022-11-20T08:26:37;7.13;67.21
65824;SHT31;52585;47.566;19.056;2022-11-20T08:29:04;7.13;67.25
65824;SHT31;52585;47.566;19.056;2022-11-20T08:31:31;7.15;67.45
65824;SHT31;52585;47.566;19.056;2022-11-20T08:33:57;7.15;67.58
65824;SHT31;52585;47.566;19.056;2022-11-20T08:36:23;7.17;67.64
65824;SHT31;52585;47.566;19.056;2022-11-20T08:38:50;7.17;67.62
65824;SHT31;52585;47.566;19.056;2022-11-20T08:41:21;7.17;67.55
65824;SHT31;52585;47.566;19.056;2022-11-20T08:43:58;7.18;67.55
65824;SHT31;52585;47.566;19.056;2022-11-20T08:46:28;7.19;67.60
65824;SHT31;52585;47.566;19.056;2022-11-20T08:49:11;7.23;67.92
65824;SHT31;52585;47.566;19.056;2022-11-20T08:51:39;7.26;67.98
65824;SHT31;52585;47.566;19.056;2022-11-20T08:54:06;7.28;67.77
65824;SHT31;52585;47.566;19.056;2022-11-20T08:56:32;7.29;67.50
65824;SHT31;52585;47.566;19.056;2022-11-20T08:58:58;7.31;67.41
65824;SHT31;52585;47.566;19.056;2022-11-20T09:01:27;7.31;67.30
65824;SHT31;52585;47.566;19.056;2022-11-20T09:03:57;7.32;67.29
65824;SHT31;52585;47.566;19.056;2022-11-20T09:06:24;7.34;67.09
65824;SHT31;52585;47.566;19.056;2022-11-20T09:08:53;7.33;67.02
65824;SHT31;52585;47.566;19.056;2022-11-20T09:11:20;7.32;66.89
65824;SHT31;52585;47.566;19.056;2022-11-20T09:13:46;7.31;67.07
65824;SHT31;52585;47.566;19.056;2022-11-20T09:16:12;7.30;67.06
65824;SHT31;52585;47.566;19.056;2022-11-20T09:18:38;7.30;67.05
65824;SHT31;52585;47.566;19.056;2022-11-20T09:21:05;7.30;67.31
65824;SHT31;52585;47.566;19.056;2022-11-20T09:23:36;7.31;67.43
65824;SHT31;52585;47.566;19.056;2022-11-20T09:26:06;7.34;67.49
65824;SHT31;52585;47.566;19.056;2022-11-20T09:28:36;7.36;67.43
65824;SHT31;52585;47.566;19.056;2022-11-20T09:31:05;7.38;67.37
65824;SHT31;52585;47.566;19.056;2022-11-20T09:33:33;7.41;67.33
65824;SHT31;52585;47.566;19.056;2022-11-20T09:36:00;7.44;67.40
65824;SHT31;52585;47.566;19.056;2022-11-20T09:38:25;7.47;67.29
65824;SHT31;52585;47.566;19.056;2022-11-20T09:40:58;7.48;67.34
65824;SHT31;52585;47.566;19.056;2022-11-20T09:46:19;7.51;67.47
65824;SHT31;52585;47.566;19.056;2022-11-20T09:51:56;7.52;67.18
65824;SHT31;52585;47.566;19.056;2022-11-20T09:54:31;7.53;67.15
65824;SHT31;52585;47.566;19.056;2022-11-20T09:57:21;7.53;67.21
65824;SHT31;52585;47.566;19.056;2022-11-20T10:00:06;7.54;67.36
65824;SHT31;52585;47.566;19.056;2022-11-20T10:05:45;7.56;67.28
65824;SHT31;52585;47.566;19.056;2022-11-20T10:08:21;7.60;67.34
65824;SHT31;52585;47.566;19.056;2022-11-20T10:25:33;7.80;66.90
65824;SHT31;52585;47.566;19.056;2022-11-20T10:28:24;7.82;66.97
65824;SHT31;52585;47.566;19.056;2022-11-20T10:31:08;7.84;67.02
65824;SHT31;52585;47.566;19.056;2022-11-20T10:33:43;7.87;67.11
65824;SHT31;52585;47.566;19.056;2022-11-20T10:36:17;7.89;67.06
65824;SHT31;52585;47.566;19.056;2022-11-20T10:38:55;7.91;67.04
65824;SHT31;52585;47.566;19.056;2022-11-20T10:41:37;7.93;67.10
65824;SHT31;52585;47.566;19.056;2022-11-20T10:44:19;7.95;67.14
65824;SHT31;52585;47.566;19.056;2022-11-20T10:47:16;8.00;67.37
65824;SHT31;52585;47.566;19.056;2022-11-20T10:49:45;8.05;67.15
65824;SHT31;52585;47.566;19.056;2022-11-20T10:55:30;8.15;67.21
65824;SHT31;52585;47.566;19.056;2022-11-20T10:58:10;8.19;67.08
65824;SHT31;52585;47.566;19.056;2022-11-20T11:00:51;8.23;67.03
65824;SHT31;52585;47.566;19.056;2022-11-20T11:03:26;8.26;66.59
65824;SHT31;52585;47.566;19.056;2022-11-20T11:06:08;8.28;66.43
65824;SHT31;52585;47.566;19.056;2022-11-20T11:09:06;8.31;66.39
65824;SHT31;52585;47.566;19.056;2022-11-20T11:11:42;8.33;66.39
65824;SHT31;52585;47.566;19.056;2022-11-20T11:14:09;8.35;66.39
65824;SHT31;52585;47.566;19.056;2022-11-20T11:16:51;8.35;66.29
65824;SHT31;52585;47.566;19.056;2022-11-20T11:19:19;8.35;66.14
65824;SHT31;52585;47.566;19.056;2022-11-20T11:21:49;8.34;66.14
65824;SHT31;52585;47.566;19.056;2022-11-20T11:26:58;8.35;66.02
65824;SHT31;52585;47.566;19.056;2022-11-20T11:29:35;8.35;66.16
65824;SHT31;52585;47.566;19.056;2022-11-20T11:32:08;8.37;66.10
65824;SHT31;52585;47.566;19.056;2022-11-20T11:34:44;8.36;66.14
65824;SHT31;52585;47.566;19.056;2022-11-20T11:37:19;8.36;66.08
65824;SHT31;52585;47.566;19.056;2022-11-20T11:39:46;8.38;66.16
65824;SHT31;52585;47.566;19.056;2022-11-20T11:42:16;8.40;66.37
65824;SHT31;52585;47.566;19.056;2022-11-20T11:44:45;8.43;66.53
65824;SHT31;52585;47.566;19.056;2022-11-20T11:47:43;8.44;66.39
65824;SHT31;52585;47.566;19.056;2022-11-20T11:52:45;8.47;66.36
65824;SHT31;52585;47.566;19.056;2022-11-20T11:55:43;8.47;66.18
65824;SHT31;52585;47.566;19.056;2022-11-20T12:01:34;8.48;66.10
65824;SHT31;52585;47.566;19.056;2022-11-20T12:07:30;8.46;66.25
65824;SHT31;52585;47.566;19.056;2022-11-20T12:10:07;8.46;66.29
65824;SHT31;52585;47.566;19.056;2022-11-20T12:12:42;8.45;66.30
65824;SHT31;52585;47.566;19.056;2022-11-20T12:15:17;8.44;66.27
65824;SHT31;52585;47.566;19.056;2022-11-20T12:17:54;8.43;66.34
65824;SHT31;52585;47.566;19.056;2022-11-20T12:20:21;8.44;66.36
65824;SHT31;52585;47.566;19.056;2022-11-20T12:23:09;8.43;66.34
65824;SHT31;52585;47.566;19.056;2022-11-20T12:25:47;8.40;66.14
65824;SHT31;52585;47.566;19.056;2022-11-20T12:40:01;8.52;66.36
65824;SHT31;52585;47.566;19.056;2022-11-20T12:42:51;8.55;66.11
65824;SHT31;52585;47.566;19.056;2022-11-20T13:00:23;8.58;66.14
65824;SHT31;52585;47.566;19.056;2022-11-20T13:05:37;8.56;66.24
65824;SHT31;52585;47.566;19.056;2022-11-20T13:16:31;8.55;66.37
65824;SHT31;52585;47.566;19.056;2022-11-20T13:19:08;8.56;66.68
65824;SHT31;52585;47.566;19.056;2022-11-20T13:21:41;8.60;66.66
65824;SHT31;52585;47.566;19.056;2022-11-20T13:26:44;8.64;66.68
65824;SHT31;52585;47.566;19.056;2022-11-20T13:29:15;8.66;66.59
65824;SHT31;52585;47.566;19.056;2022-11-20T13:31:44;8.68;66.58
65824;SHT31;52585;47.566;19.056;2022-11-20T13:34:25;8.69;66.59
65824;SHT31;52585;47.566;19.056;2022-11-20T13:36:56;8.69;66.59
65824;SHT31;52585;47.566;19.056;2022-11-20T13:42:01;8.69;66.48
65824;SHT31;52585;47.566;19.056;2022-11-20T13:45:01;8.68;66.48
65824;SHT31;52585;47.566;19.056;2022-11-20T13:47:35;8.69;66.46
65824;SHT31;52585;47.566;19.056;2022-11-20T13:50:02;8.68;66.44
65824;SHT31;52585;47.566;19.056;2022-11-20T13:52:38;8.68;66.48
65824;SHT31;52585;47.566;19.056;2022-11-20T13:55:40;8.67;66.55
65824;SHT31;52585;47.566;19.056;2022-11-20T13:59:10;8.66;66.59
65824;SHT31;52585;47.566;19.056;2022-11-20T14:01:32;8.65;66.64
65824;SHT31;52585;47.566;19.056;2022-11-20T14:03:59;8.66;66.80
65824;SHT31;52585;47.566;19.056;2022-11-20T14:06:42;8.66;66.88
65824;SHT31;52585;47.566;19.056;2022-11-20T14:09:12;8.68;66.98
65824;SHT31;52585;47.566;19.056;2022-11-20T14:11:50;8.69;66.99
65824;SHT31;52585;47.566;19.056;2022-11-20T14:14:17;8.70;66.91
65824;SHT31;52585;47.566;19.056;2022-11-20T14:16:49;8.71;66.90
65824;SHT31;52585;47.566;19.056;2022-11-20T14:21:44;8.72;66.89
65824;SHT31;52585;47.566;19.056;2022-11-20T14:24:20;8.72;66.82
65824;SHT31;52585;47.566;19.056;2022-11-20T14:26:49;8.71;66.81
65824;SHT31;52585;47.566;19.056;2022-11-20T14:29:17;8.70;66.85
65824;SHT31;52585;47.566;19.056;2022-11-20T14:31:47;8.69;66.88
65824;SHT31;52585;47.566;19.056;2022-11-20T14:34:21;8.68;66.90
65824;SHT31;52585;47.566;19.056;2022-11-20T14:37:00;8.66;66.87
65824;SHT31;52585;47.566;19.056;2022-11-20T14:39:32;8.64;66.91
65824;SHT31;52585;47.566;19.056;2022-11-20T14:42:01;8.63;66.90
65824;SHT31;52585;47.566;19.056;2022-11-20T14:44:38;8.60;66.97
65824;SHT31;52585;47.566;19.056;2022-11-20T14:47:06;8.61;66.98
65824;SHT31;52585;47.566;19.056;2022-11-20T14:49:36;8.63;67.05
65824;SHT31;52585;47.566;19.056;2022-11-20T14:52:09;8.65;67.06
65824;SHT31;52585;47.566;19.056;2022-11-20T14:54:43;8.68;67.02
65824;SHT31;52585;47.566;19.056;2022-11-20T15:00:20;8.74;67.02
65824;SHT31;52585;47.566;19.056;2022-11-20T15:02:48;8.75;66.93
65824;SHT31;52585;47.566;19.056;2022-11-20T15:05:17;8.75;66.87
65824;SHT31;52585;47.566;19.056;2022-11-20T15:07:50;8.74;66.80
65824;SHT31;52585;47.566;19.056;2022-11-20T15:10:37;8.73;66.74
65824;SHT31;52585;47.566;19.056;2022-11-20T15:16:04;8.71;66.57
65824;SHT31;52585;47.566;19.056;2022-11-20T15:18:43;8.69;66.58
65824;SHT31;52585;47.566;19.056;2022-11-20T15:21:11;8.67;66.54
65824;SHT31;52585;47.566;19.056;2022-11-20T15:23:39;8.65;66.50
65824;SHT31;52585;47.566;19.056;2022-11-20T15:26:05;8.63;66.50
65824;SHT31;52585;47.566;19.056;2022-11-20T15:28:33;8.61;66.48
65824;SHT31;52585;47.566;19.056;2022-11-20T15:31:02;8.59;66.43
65824;SHT31;52585;47.566;19.056;2022-11-20T15:33:29;8.58;66.44
65824;SHT31;52585;47.566;19.056;2022-11-20T15:35:56;8.58;66.57
65824;SHT31;52585;47.566;19.056;2022-11-20T15:38:22;8.59;66.64
65824;SHT31;52585;47.566;19.056;2022-11-20T15:40:48;8.60;66.66
65824;SHT31;52585;47.566;19.056;2022-11-20T15:43:14;8.60;66.65
65824;SHT31;52585;47.566;19.056;2022-11-20T15:48:16;8.59;66.61
65824;SHT31;52585;47.566;19.056;2022-11-20T15:50:50;8.59;66.59
65824;SHT31;52585;47.566;19.056;2022-11-20T15:53:39;8.58;66.59
65824;SHT31;52585;47.566;19.056;2022-11-20T15:56:13;8.56;66.58
65824;SHT31;52585;47.566;19.056;2022-11-20T15:58:39;8.55;66.60
65824;SHT31;52585;47.566;19.056;2022-11-20T16:01:10;8.53;66.60
65824;SHT31;52585;47.566;19.056;2022-11-20T16:03:47;8.52;66.61
65824;SHT31;52585;47.566;19.056;2022-11-20T16:06:13;8.50;66.55
65824;SHT31;52585;47.566;19.056;2022-11-20T16:08:41;8.48;66.60
65824;SHT31;52585;47.566;19.056;2022-11-20T16:11:07;8.47;66.61
65824;SHT31;52585;47.566;19.056;2022-11-20T16:13:38;8.45;66.62
65824;SHT31;52585;47.566;19.056;2022-11-20T16:16:23;8.45;66.77
65824;SHT31;52585;47.566;19.056;2022-11-20T16:18:55;8.46;66.92
65824;SHT31;52585;47.566;19.056;2022-11-20T16:21:21;8.48;66.95
65824;SHT31;52585;47.566;19.056;2022-11-20T16:23:53;8.48;66.90
65824;SHT31;52585;47.566;19.056;2022-11-20T16:26:19;8.48;66.85
65824;SHT31;52585;47.566;19.056;2022-11-20T16:28:45;8.48;66.80
65824;SHT31;52585;47.566;19.056;2022-11-20T16:31:20;8.48;66.74
65824;SHT31;52585;47.566;19.056;2022-11-20T16:33:50;8.47;66.69
65824;SHT31;52585;47.566;19.056;2022-11-20T16:36:18;8.46;66.64
65824;SHT31;52585;47.566;19.056;2022-11-20T16:38:51;8.45;66.72
65824;SHT31;52585;47.566;19.056;2022-11-20T16:41:22;8.44;66.74
65824;SHT31;52585;47.566;19.056;2022-11-20T16:43:52;8.44;66.72
65824;SHT31;52585;47.566;19.056;2022-11-20T16:46:24;8.42;66.70
65824;SHT31;52585;47.566;19.056;2022-11-20T16:48:58;8.39;66.71
65824;SHT31;52585;47.566;19.056;2022-11-20T16:51:28;8.38;66.76
65824;SHT31;52585;47.566;19.056;2022-11-20T16:53:55;8.36;66.71
65824;SHT31;52585;47.566;19.056;2022-11-20T16:56:23;8.34;66.73
65824;SHT31;52585;47.566;19.056;2022-11-20T16:58:52;8.34;66.79
65824;SHT31;52585;47.566;19.056;2022-11-20T17:01:21;8.35;66.78
65824;SHT31;52585;47.566;19.056;2022-11-20T17:03:56;8.35;66.82
65824;SHT31;52585;47.566;19.056;2022-11-20T17:06:24;8.35;66.78
65824;SHT31;52585;47.566;19.056;2022-11-20T17:08:55;8.35;66.70
65824;SHT31;52585;47.566;19.056;2022-11-20T17:11:22;8.33;66.62
65824;SHT31;52585;47.566;19.056;2022-11-20T17:13:49;8.31;66.54
65824;SHT31;52585;47.566;19.056;2022-11-20T17:16:16;8.30;66.53
65824;SHT31;52585;47.566;19.056;2022-11-20T17:18:46;8.28;66.49
65824;SHT31;52585;47.566;19.056;2022-11-20T17:21:14;8.25;66.42
65824;SHT31;52585;47.566;19.056;2022-11-20T17:23:41;8.23;66.33
65824;SHT31;52585;47.566;19.056;2022-11-20T17:26:09;8.20;66.30
65824;SHT31;52585;47.566;19.056;2022-11-20T17:28:43;8.16;66.30